Time;durP1;ratioP1;P1;durP2;ratioP2;P2;SDS_P1;SDS_P2;PMS_P1;PMS_P2;Temp;Humidity;BMP_temperature;BMP_pressure;BME280_temperature;BME280_humidity;BME280_pressure;Samples;Min_cycle;Max_cycle;Signal;HPM_P1;HPM_P2
2023/06/19 00:01:49;;;;;;;9.50;8.80;;;21.80;99.90;;;;;;5053731;28;20473;-78
2023/06/19 00:04:16;;;;;;;11.10;10.17;;;21.80;99.90;;;;;;5053544;28;20480;-77
2023/06/19 00:06:43;;;;;;;12.07;11.10;;;21.80;99.90;;;;;;5053427;28;20965;-81
2023/06/19 00:09:10;;;;;;;11.97;11.17;;;21.80;99.90;;;;;;5052772;28;20490;-78
2023/06/19 00:11:37;;;;;;;10.17;9.47;;;21.80;99.90;;;;;;5052864;28;20471;-78
2023/06/19 00:14:08;;;;;;;10.60;9.80;;;21.80;99.90;;;;;;5050579;28;20552;-77
2023/06/19 00:16:36;;;;;;;12.17;11.20;;;21.80;99.90;;;;;;5053475;28;20498;-80
2023/06/19 00:19:03;;;;;;;12.10;11.30;;;21.80;99.90;;;;;;5052178;28;20468;-79
2023/06/19 00:21:31;;;;;;;11.97;11.17;;;21.70;99.90;;;;;;5052946;28;20546;-79
2023/06/19 00:24:01;;;;;;;10.47;9.77;;;21.70;99.90;;;;;;5053123;28;20471;-76
2023/06/19 00:26:34;;;;;;;10.27;9.57;;;21.70;99.90;;;;;;5052810;28;20467;-78
2023/06/19 00:29:01;;;;;;;13.57;12.40;;;21.80;99.90;;;;;;5052626;28;20476;-78
2023/06/19 00:31:30;;;;;;;11.57;10.73;;;21.70;99.90;;;;;;5052469;28;20459;-76
2023/06/19 00:33:57;;;;;;;11.80;10.90;;;21.70;99.90;;;;;;5053420;28;20805;-78
2023/06/19 00:36:26;;;;;;;12.37;11.43;;;21.70;99.90;;;;;;5052092;28;20851;-76
2023/06/19 00:38:53;;;;;;;11.87;11.07;;;21.70;99.90;;;;;;5053306;28;20546;-76
2023/06/19 00:41:22;;;;;;;13.27;12.13;;;21.80;99.90;;;;;;5053027;28;20533;-76
2023/06/19 00:43:49;;;;;;;13.03;12.03;;;21.70;99.90;;;;;;5052595;28;20463;-79
2023/06/19 00:46:17;;;;;;;12.27;11.37;;;21.70;99.90;;;;;;5052154;28;20849;-77
2023/06/19 00:48:45;;;;;;;12.57;11.67;;;21.70;99.90;;;;;;5055696;28;20471;-77
2023/06/19 00:51:13;;;;;;;12.10;11.30;;;21.70;99.90;;;;;;5055398;28;20467;-77
2023/06/19 00:53:40;;;;;;;12.50;11.60;;;21.70;99.90;;;;;;5056550;28;20945;-77
2023/06/19 00:56:07;;;;;;;12.17;11.27;;;21.70;99.90;;;;;;5056906;28;20481;-78
2023/06/19 00:58:35;;;;;;;11.67;10.87;;;21.80;99.90;;;;;;5056403;28;20512;-77
2023/06/19 01:01:02;;;;;;;12.37;11.47;;;21.80;99.90;;;;;;5057059;28;20467;-77
2023/06/19 01:03:29;;;;;;;14.47;13.27;;;21.80;99.90;;;;;;5045371;28;20550;-77
2023/06/19 01:06:00;;;;;;;13.47;12.47;;;21.80;99.90;;;;;;5056740;28;20513;-79
2023/06/19 01:08:44;;;;;;;12.83;11.93;;;21.80;99.90;;;;;;5056072;28;20486;-78
2023/06/19 01:11:13;;;;;;;12.13;11.33;;;21.80;99.90;;;;;;5055997;28;20517;-77
2023/06/19 01:13:45;;;;;;;12.70;11.60;;;21.80;99.90;;;;;;5056246;28;20479;-77
2023/06/19 01:16:17;;;;;;;12.97;11.77;;;21.80;99.90;;;;;;5056565;28;21022;-77
2023/06/19 01:18:45;;;;;;;14.93;13.60;;;21.80;99.90;;;;;;5056068;28;20897;-78
2023/06/19 01:21:15;;;;;;;11.47;10.60;;;21.80;99.90;;;;;;5056552;28;20474;-78
2023/06/19 01:23:46;;;;;;;11.57;10.77;;;21.80;99.90;;;;;;5055814;28;20459;-76
2023/06/19 01:26:14;;;;;;;11.87;11.00;;;21.80;99.90;;;;;;5056246;28;20474;-78
2023/06/19 01:28:44;;;;;;;11.97;11.07;;;21.80;99.90;;;;;;5055840;28;20542;-78
2023/06/19 01:31:26;;;;;;;11.50;10.70;;;21.80;99.90;;;;;;5056440;28;20537;-77
2023/06/19 01:33:55;;;;;;;12.70;11.70;;;21.80;99.90;;;;;;5047227;28;20467;-77
2023/06/19 01:36:23;;;;;;;12.23;11.43;;;21.80;99.90;;;;;;5056053;28;20475;-76
2023/06/19 01:38:52;;;;;;;13.63;12.70;;;21.70;99.90;;;;;;5055932;28;20467;-77
2023/06/19 01:41:22;;;;;;;12.03;11.23;;;21.70;99.90;;;;;;5055751;28;20475;-76
2023/06/19 01:43:50;;;;;;;11.90;10.90;;;21.70;99.90;;;;;;5055638;28;20506;-76
2023/06/19 01:46:17;;;;;;;12.30;11.30;;;21.70;99.90;;;;;;5055986;28;21042;-76
2023/06/19 01:48:44;;;;;;;13.20;12.30;;;21.70;99.90;;;;;;5054692;28;20524;-76
2023/06/19 01:51:12;;;;;;;13.77;12.87;;;21.70;99.90;;;;;;5055852;28;20534;-78
2023/06/19 01:53:39;;;;;;;13.70;12.50;;;21.60;99.90;;;;;;5055641;28;20468;-77
2023/06/19 01:56:08;;;;;;;13.07;12.17;;;21.60;99.90;;;;;;5055266;28;20468;-76
2023/06/19 01:58:35;;;;;;;14.63;13.23;;;21.60;99.90;;;;;;5055043;28;20475;-79
2023/06/19 02:01:02;;;;;;;12.23;11.33;;;21.60;99.90;;;;;;5055489;28;20467;-77
2023/06/19 02:03:29;;;;;;;12.90;12.00;;;21.60;99.90;;;;;;5055689;28;20509;-76
2023/06/19 02:05:56;;;;;;;12.30;11.50;;;21.60;99.90;;;;;;5054752;28;20486;-78
2023/06/19 02:08:23;;;;;;;15.10;13.90;;;21.60;99.90;;;;;;5055445;28;20497;-76
2023/06/19 02:10:51;;;;;;;13.07;12.17;;;21.60;99.90;;;;;;5054745;28;20481;-76
2023/06/19 02:13:20;;;;;;;12.33;11.33;;;21.60;99.90;;;;;;5055487;28;20479;-76
2023/06/19 02:15:51;;;;;;;12.83;11.93;;;21.60;99.90;;;;;;5054253;28;20468;-77
2023/06/19 02:18:18;;;;;;;12.20;11.30;;;21.60;99.90;;;;;;5055298;28;20529;-78
2023/06/19 02:20:48;;;;;;;14.33;13.23;;;21.60;99.90;;;;;;5054506;28;20471;-77
2023/06/19 02:23:15;;;;;;;14.50;13.50;;;21.60;99.90;;;;;;5055253;28;20466;-78
2023/06/19 02:25:43;;;;;;;13.87;12.77;;;21.60;99.90;;;;;;5054298;28;20474;-78
2023/06/19 02:28:10;;;;;;;14.67;13.67;;;21.50;99.90;;;;;;5054558;28;20474;-78
2023/06/19 02:30:39;;;;;;;13.03;12.07;;;21.60;99.90;;;;;;5054295;28;20979;-77
2023/06/19 02:33:06;;;;;;;14.93;13.93;;;21.50;99.90;;;;;;5054807;28;20464;-77
2023/06/19 02:35:33;;;;;;;14.07;13.07;;;21.50;99.90;;;;;;5054722;28;20784;-77
2023/06/19 02:38:00;;;;;;;13.60;12.60;;;21.50;99.90;;;;;;5054112;28;20935;-77
2023/06/19 02:40:27;;;;;;;12.30;11.40;;;21.50;99.90;;;;;;5054909;28;20483;-78
2023/06/19 02:42:54;;;;;;;12.27;11.40;;;21.60;99.90;;;;;;5054065;28;20471;-77
2023/06/19 02:45:21;;;;;;;12.30;11.40;;;21.60;99.90;;;;;;5054504;28;20829;-77
2023/06/19 02:47:51;;;;;;;15.30;14.10;;;21.60;99.90;;;;;;5054028;28;20479;-76
2023/06/19 02:50:18;;;;;;;12.23;11.33;;;21.60;99.90;;;;;;5054491;28;20793;-77
2023/06/19 02:52:45;;;;;;;11.87;11.03;;;21.60;99.90;;;;;;5053548;28;20525;-77
2023/06/19 02:55:12;;;;;;;12.17;11.33;;;21.60;99.90;;;;;;5053675;28;20969;-77
2023/06/19 02:57:39;;;;;;;12.47;11.57;;;21.60;99.90;;;;;;5054201;28;20467;-77
2023/06/19 03:00:09;;;;;;;15.67;14.43;;;21.60;99.90;;;;;;5054405;28;20467;-77
2023/06/19 03:02:36;;;;;;;13.33;12.43;;;21.60;99.90;;;;;;5054414;28;20497;-76
2023/06/19 03:05:05;;;;;;;14.30;13.30;;;21.60;99.90;;;;;;5053885;28;20524;-77
2023/06/19 03:07:32;;;;;;;13.40;12.30;;;21.60;99.90;;;;;;5054103;28;20804;-77
2023/06/19 03:09:59;;;;;;;15.03;13.93;;;21.60;99.90;;;;;;5053364;28;20529;-77
2023/06/19 03:12:28;;;;;;;13.13;12.13;;;21.60;99.90;;;;;;5054314;28;20566;-77
2023/06/19 03:14:58;;;;;;;16.27;15.07;;;21.60;99.90;;;;;;5053575;28;20467;-78
2023/06/19 03:17:25;;;;;;;15.73;14.53;;;21.60;99.90;;;;;;5044074;28;20475;-78
2023/06/19 03:19:52;;;;;;;14.97;13.97;;;21.60;99.90;;;;;;5052869;28;20470;-78
2023/06/19 03:22:21;;;;;;;14.60;13.50;;;21.60;99.90;;;;;;5054316;28;20455;-78
2023/06/19 03:24:49;;;;;;;15.20;13.93;;;21.60;99.90;;;;;;5053426;28;20474;-78
2023/06/19 03:27:16;;;;;;;14.97;13.87;;;21.60;99.90;;;;;;5053254;28;20467;-78
2023/06/19 03:29:43;;;;;;;12.93;12.03;;;21.60;99.90;;;;;;5054040;28;20513;-78
2023/06/19 03:32:10;;;;;;;11.00;10.20;;;21.60;99.90;;;;;;5053712;28;20816;-78
2023/06/19 03:34:37;;;;;;;12.40;11.60;;;21.50;99.90;;;;;;5053202;28;20499;-77
2023/06/19 03:37:04;;;;;;;15.30;14.20;;;21.60;99.90;;;;;;5053187;28;20471;-76
2023/06/19 03:39:32;;;;;;;14.90;13.60;;;21.60;99.90;;;;;;5053702;28;20781;-77
2023/06/19 03:42:00;;;;;;;16.00;14.77;;;21.60;99.90;;;;;;5053333;28;20533;-77
2023/06/19 03:44:27;;;;;;;14.10;13.10;;;21.60;99.90;;;;;;5053563;28;20478;-78
2023/06/19 03:46:57;;;;;;;14.93;13.80;;;21.60;99.90;;;;;;5052716;28;20969;-78
2023/06/19 03:49:24;;;;;;;14.90;13.80;;;21.60;99.90;;;;;;5053613;28;20459;-78
2023/06/19 03:51:51;;;;;;;14.80;13.80;;;21.60;99.90;;;;;;5052864;28;20471;-78
2023/06/19 03:54:18;;;;;;;15.87;14.57;;;21.60;99.90;;;;;;5052919;28;20949;-78
2023/06/19 03:56:46;;;;;;;12.63;11.73;;;21.60;99.90;;;;;;5052666;28;20813;-78
2023/06/19 03:59:14;;;;;;;13.20;12.30;;;21.60;99.90;;;;;;5053385;28;20980;-78
2023/06/19 04:01:42;;;;;;;12.90;11.93;;;21.70;99.90;;;;;;5053299;28;20463;-76
2023/06/19 04:04:08;;;;;;;13.37;12.37;;;21.70;99.90;;;;;;5042013;28;20473;-76
2023/06/19 04:06:36;;;;;;;14.13;13.13;;;21.70;99.90;;;;;;5053029;28;20475;-76
2023/06/19 04:09:04;;;;;;;15.17;13.87;;;21.70;99.90;;;;;;5052257;28;20615;-76
2023/06/19 04:11:31;;;;;;;13.33;12.40;;;21.70;99.90;;;;;;5053179;28;20767;-76
2023/06/19 04:14:00;;;;;;;14.17;13.07;;;21.70;99.90;;;;;;5052246;28;20483;-76
2023/06/19 04:16:27;;;;;;;14.77;13.67;;;21.70;99.90;;;;;;5053286;28;20797;-76
2023/06/19 04:18:54;;;;;;;13.37;12.47;;;21.70;99.90;;;;;;5052085;28;20482;-77
2023/06/19 04:21:21;;;;;;;13.30;12.37;;;21.80;99.90;;;;;;5052722;28;20463;-76
2023/06/19 04:23:48;;;;;;;13.00;12.10;;;21.80;99.90;;;;;;5056351;28;20999;-78
2023/06/19 04:26:16;;;;;;;13.20;11.90;;;21.80;99.90;;;;;;5056798;28;20463;-78
2023/06/19 04:28:43;;;;;;;17.63;16.33;;;21.80;99.90;;;;;;5057148;28;20984;-77
2023/06/19 04:31:12;;;;;;;14.57;13.47;;;21.80;99.90;;;;;;5056293;28;20869;-77
2023/06/19 04:33:40;;;;;;;13.57;12.57;;;21.80;99.90;;;;;;5057271;28;20489;-76
2023/06/19 04:36:09;;;;;;;13.20;12.20;;;21.80;99.90;;;;;;5054761;28;20482;-76
2023/06/19 04:38:36;;;;;;;12.33;11.33;;;21.80;99.90;;;;;;5057123;28;20462;-77
2023/06/19 04:41:03;;;;;;;13.73;12.70;;;21.80;99.90;;;;;;5056191;28;20540;-76
2023/06/19 04:43:33;;;;;;;13.67;12.67;;;21.90;99.90;;;;;;5057089;28;20471;-76
2023/06/19 04:46:00;;;;;;;15.13;14.00;;;21.80;99.90;;;;;;5056224;28;20471;-77
2023/06/19 04:48:29;;;;;;;13.83;12.70;;;21.90;99.90;;;;;;5057092;28;20877;-76
2023/06/19 04:51:00;;;;;;;12.70;11.70;;;21.90;99.90;;;;;;5055774;28;20471;-77
2023/06/19 04:53:28;;;;;;;12.67;11.67;;;21.90;99.90;;;;;;5054623;28;20785;-79
2023/06/19 04:55:55;;;;;;;14.43;13.43;;;21.90;99.90;;;;;;5056864;28;20495;-79
2023/06/19 04:58:23;;;;;;;12.60;11.80;;;21.90;99.90;;;;;;5056421;28;20966;-78
2023/06/19 05:00:52;;;;;;;12.07;11.17;;;21.90;99.90;;;;;;5056925;28;20532;-78
2023/06/19 05:03:19;;;;;;;12.87;11.77;;;21.90;99.90;;;;;;5056204;28;20463;-79
2023/06/19 05:05:48;;;;;;;13.83;12.80;;;21.90;99.90;;;;;;5056776;28;20482;-79
2023/06/19 05:08:15;;;;;;;12.80;11.90;;;22.00;99.90;;;;;;5056170;28;20475;-78
2023/06/19 05:10:42;;;;;;;13.00;12.10;;;22.00;99.90;;;;;;5056158;28;20459;-78
2023/06/19 05:13:09;;;;;;;16.07;14.93;;;22.00;99.90;;;;;;5055790;28;20844;-77
2023/06/19 05:15:39;;;;;;;13.60;12.50;;;22.00;99.90;;;;;;5043815;28;20536;-77
2023/06/19 05:18:06;;;;;;;13.20;12.20;;;22.00;99.90;;;;;;5056034;28;20536;-78
2023/06/19 05:20:33;;;;;;;13.40;12.40;;;22.00;99.90;;;;;;5045905;28;20475;-78
2023/06/19 05:23:02;;;;;;;12.90;12.00;;;22.00;99.90;;;;;;5056082;28;20463;-77
2023/06/19 05:25:29;;;;;;;13.87;12.87;;;22.00;99.90;;;;;;5056153;28;20816;-78
2023/06/19 05:27:56;;;;;;;15.43;14.27;;;22.00;99.90;;;;;;5055769;28;20475;-78
2023/06/19 05:30:26;;;;;;;14.30;13.30;;;22.00;99.90;;;;;;5056584;28;20490;-77
2023/06/19 05:32:53;;;;;;;12.50;11.50;;;22.00;99.90;;;;;;5055747;28;20475;-78
2023/06/19 05:35:25;;;;;;;12.93;11.93;;;22.00;99.90;;;;;;5055773;28;20620;-77
2023/06/19 05:37:55;;;;;;;13.37;12.40;;;22.10;99.90;;;;;;5056340;28;20471;-78
2023/06/19 05:40:23;;;;;;;13.00;12.00;;;22.10;99.90;;;;;;5056242;28;20498;-78
2023/06/19 05:42:50;;;;;;;11.83;11.03;;;22.10;99.90;;;;;;5055906;28;20463;-77
2023/06/19 05:45:17;;;;;;;14.40;13.30;;;22.10;99.90;;;;;;5055198;28;20482;-78
2023/06/19 05:47:47;;;;;;;13.40;12.50;;;22.10;99.90;;;;;;5060130;28;20474;-77
2023/06/19 05:50:14;;;;;;;12.40;11.60;;;22.10;99.90;;;;;;5055245;28;20528;-79
2023/06/19 05:52:43;;;;;;;16.13;14.63;;;22.10;99.90;;;;;;5055709;28;20467;-78
2023/06/19 05:55:12;;;;;;;17.13;15.77;;;22.20;99.90;;;;;;5054921;28;20505;-78
2023/06/19 05:57:42;;;;;;;16.93;15.63;;;22.20;99.90;;;;;;5055482;28;20871;-78
2023/06/19 06:00:14;;;;;;;14.93;13.90;;;22.10;99.90;;;;;;5054926;28;20474;-78
2023/06/19 06:02:41;;;;;;;14.80;13.77;;;22.20;99.90;;;;;;5055660;28;20491;-78
2023/06/19 06:05:09;;;;;;;15.43;14.33;;;22.20;99.90;;;;;;5045839;28;20471;-78
2023/06/19 06:07:36;;;;;;;15.60;14.40;;;22.30;99.90;;;;;;5055320;28;20471;-77
2023/06/19 06:10:05;;;;;;;15.17;13.97;;;22.30;99.90;;;;;;5054999;28;20552;-78
2023/06/19 06:12:34;;;;;;;13.33;12.33;;;22.30;99.90;;;;;;5055094;28;20472;-78
2023/06/19 06:15:04;;;;;;;17.03;15.73;;;22.30;99.90;;;;;;5054986;28;20471;-78
2023/06/19 06:17:31;;;;;;;17.87;16.50;;;22.30;99.90;;;;;;5055958;28;20836;-77
2023/06/19 06:19:58;;;;;;;17.00;15.73;;;22.30;99.90;;;;;;5046184;28;20459;-78
2023/06/19 06:22:29;;;;;;;16.23;15.00;;;22.30;99.90;;;;;;5053730;28;20481;-78
2023/06/19 06:24:56;;;;;;;18.47;17.10;;;22.30;99.90;;;;;;5055691;28;20479;-77
2023/06/19 06:27:23;;;;;;;16.77;15.13;;;22.20;99.90;;;;;;5054064;28;20984;-76
2023/06/19 06:29:51;;;;;;;17.30;15.80;;;22.30;99.90;;;;;;5055037;28;20521;-76
2023/06/19 06:32:20;;;;;;;15.67;14.47;;;22.30;99.90;;;;;;5054747;28;20467;-77
2023/06/19 06:34:47;;;;;;;18.03;16.60;;;22.30;99.90;;;;;;5055215;28;20470;-78
2023/06/19 06:37:16;;;;;;;18.20;16.73;;;22.40;99.90;;;;;;5054072;28;20526;-76
2023/06/19 06:39:43;;;;;;;18.17;16.77;;;22.40;99.90;;;;;;5054980;28;20459;-78
2023/06/19 06:42:10;;;;;;;16.03;14.83;;;22.40;99.90;;;;;;5054062;28;20478;-77
2023/06/19 06:44:37;;;;;;;17.07;15.70;;;22.40;99.90;;;;;;5054133;28;20530;-77
2023/06/19 06:47:04;;;;;;;16.23;15.10;;;22.40;99.90;;;;;;5053860;28;20597;-77
2023/06/19 06:49:32;;;;;;;17.07;15.80;;;22.40;99.90;;;;;;5054248;28;20467;-77
2023/06/19 06:52:02;;;;;;;13.97;12.97;;;22.50;99.90;;;;;;5054722;28;20479;-77
2023/06/19 06:54:29;;;;;;;17.77;16.37;;;22.50;99.90;;;;;;5044186;28;20532;-77
2023/06/19 06:56:58;;;;;;;16.60;15.20;;;22.50;99.90;;;;;;5053799;28;20537;-77
2023/06/19 06:59:26;;;;;;;17.33;15.90;;;22.60;99.90;;;;;;5054472;28;20592;-78
2023/06/19 07:01:53;;;;;;;17.60;16.10;;;22.70;99.90;;;;;;5055003;28;20944;-78
2023/06/19 07:04:22;;;;;;;16.80;15.20;;;22.70;99.90;;;;;;5053360;28;20471;-78
2023/06/19 07:06:52;;;;;;;16.80;15.27;;;22.80;99.90;;;;;;5054802;28;20473;-78
2023/06/19 07:09:22;;;;;;;16.97;15.67;;;22.70;99.90;;;;;;5054177;28;20513;-77
2023/06/19 07:11:51;;;;;;;15.63;14.43;;;22.80;99.90;;;;;;5054315;28;20985;-78
2023/06/19 07:14:18;;;;;;;14.70;13.63;;;22.80;99.90;;;;;;5054307;28;20474;-78
2023/06/19 07:16:54;;;;;;;17.00;15.53;;;22.90;99.90;;;;;;5054047;28;20463;-77
2023/06/19 07:19:21;;;;;;;16.70;15.50;;;22.90;99.90;;;;;;5054027;28;20477;-77
2023/06/19 07:21:51;;;;;;;16.23;14.87;;;22.90;99.90;;;;;;5053653;28;21006;-78
2023/06/19 07:24:18;;;;;;;18.30;16.73;;;23.00;99.90;;;;;;5054224;28;20533;-78
2023/06/19 07:26:47;;;;;;;15.87;14.67;;;23.00;99.90;;;;;;5053494;28;20546;-78
2023/06/19 07:29:14;;;;;;;17.87;16.37;;;23.10;99.90;;;;;;5054294;28;20474;-78
2023/06/19 07:31:42;;;;;;;18.37;16.53;;;23.00;99.90;;;;;;5053965;28;20472;-78
2023/06/19 07:34:09;;;;;;;17.07;15.57;;;23.00;99.90;;;;;;5054136;28;20465;-77
2023/06/19 07:36:36;;;;;;;16.07;14.80;;;23.10;99.90;;;;;;5053130;28;20486;-76
2023/06/19 07:39:05;;;;;;;15.87;14.60;;;23.20;99.90;;;;;;5053366;28;20482;-76
2023/06/19 07:41:32;;;;;;;16.90;15.33;;;23.20;99.90;;;;;;5052669;28;20522;-76
2023/06/19 07:43:59;;;;;;;15.73;14.53;;;23.30;99.90;;;;;;5053839;28;20471;-77
2023/06/19 07:46:26;;;;;;;15.47;14.23;;;23.40;99.90;;;;;;5053584;28;20533;-76
2023/06/19 07:48:54;;;;;;;14.90;13.87;;;23.40;99.90;;;;;;5053365;28;20459;-76
2023/06/19 07:51:24;;;;;;;21.63;18.73;;;23.50;99.90;;;;;;5052993;28;20544;-77
2023/06/19 07:53:53;;;;;;;18.10;16.70;;;23.50;99.90;;;;;;5053211;28;20463;-77
2023/06/19 07:56:21;;;;;;;16.73;15.43;;;23.60;99.90;;;;;;5053363;28;20976;-77
2023/06/19 07:58:48;;;;;;;15.93;14.53;;;23.60;99.90;;;;;;5042097;28;20479;-78
2023/06/19 08:01:16;;;;;;;16.20;14.90;;;23.70;99.90;;;;;;5054270;28;21022;-78
2023/06/19 08:03:45;;;;;;;17.00;15.50;;;23.70;99.90;;;;;;5054675;28;20466;-77
2023/06/19 08:06:12;;;;;;;16.30;14.80;;;23.80;99.90;;;;;;5043852;28;20475;-79
2023/06/19 08:08:39;;;;;;;15.87;14.57;;;23.80;99.90;;;;;;5053644;28;20486;-78
2023/06/19 08:11:06;;;;;;;16.73;15.40;;;23.80;99.90;;;;;;5054313;28;20471;-77
2023/06/19 08:13:37;;;;;;;15.40;14.20;;;23.80;99.90;;;;;;5054015;28;20471;-77
2023/06/19 08:16:05;;;;;;;16.73;15.30;;;23.90;99.90;;;;;;5054043;28;20905;-77
2023/06/19 08:18:32;;;;;;;17.40;16.10;;;23.90;99.90;;;;;;5054128;28;20464;-76
2023/06/19 08:21:00;;;;;;;16.10;14.90;;;23.90;99.90;;;;;;5053441;28;20474;-76
2023/06/19 08:23:27;;;;;;;15.40;14.30;;;24.00;99.90;;;;;;5054423;28;20524;-77
2023/06/19 08:25:56;;;;;;;16.63;15.27;;;24.00;99.90;;;;;;5053374;28;20495;-77
2023/06/19 08:28:23;;;;;;;16.20;15.00;;;24.10;99.90;;;;;;5054271;28;20550;-78
2023/06/19 08:30:52;;;;;;;15.53;14.43;;;24.10;99.90;;;;;;5053534;28;20547;-78
2023/06/19 08:33:19;;;;;;;15.77;14.57;;;24.20;99.90;;;;;;5053480;28;20467;-77
2023/06/19 08:35:48;;;;;;;16.07;14.77;;;24.20;99.90;;;;;;5051805;28;20789;-77
2023/06/19 08:38:15;;;;;;;15.83;14.73;;;24.20;99.90;;;;;;5053179;28;20470;-77
2023/06/19 08:40:42;;;;;;;14.90;13.53;;;24.30;99.90;;;;;;5052027;28;20498;-77
2023/06/19 08:43:09;;;;;;;15.43;14.13;;;24.20;99.90;;;;;;5052100;28;20467;-78
2023/06/19 08:45:37;;;;;;;15.57;14.37;;;24.30;99.90;;;;;;5052474;28;20540;-77
2023/06/19 08:48:08;;;;;;;16.67;15.27;;;24.30;99.90;;;;;;5051094;28;20510;-78
2023/06/19 08:50:35;;;;;;;15.30;14.03;;;24.30;99.90;;;;;;5052960;28;20475;-77
2023/06/19 08:53:02;;;;;;;16.20;14.93;;;24.40;99.90;;;;;;5052899;28;20475;-77
2023/06/19 08:55:29;;;;;;;15.60;14.50;;;24.40;99.90;;;;;;5053351;28;20479;-77
2023/06/19 08:57:56;;;;;;;14.67;13.70;;;24.50;99.90;;;;;;5053420;28;20472;-76
2023/06/19 09:00:27;;;;;;;17.07;15.70;;;24.50;99.90;;;;;;5054011;28;20475;-77
2023/06/19 09:03:03;;;;;;;16.63;15.53;;;24.50;99.90;;;;;;5052268;28;20490;-77
2023/06/19 09:05:32;;;;;;;15.27;14.17;;;24.50;99.90;;;;;;5053142;28;20486;-78
2023/06/19 09:08:03;;;;;;;17.10;15.60;;;24.50;99.90;;;;;;5052343;28;20465;-78
2023/06/19 09:10:31;;;;;;;15.73;14.40;;;24.50;99.90;;;;;;5057068;28;20524;-78
2023/06/19 09:12:59;;;;;;;14.93;13.90;;;24.50;99.90;;;;;;5056588;28;20467;-76
2023/06/19 09:15:29;;;;;;;17.07;15.73;;;24.50;99.90;;;;;;5057823;28;20520;-77
2023/06/19 09:18:04;;;;;;;14.60;13.40;;;24.50;99.90;;;;;;5057456;28;20557;-77
2023/06/19 09:20:34;;;;;;;17.23;15.73;;;24.50;99.90;;;;;;5058384;28;20459;-78
2023/06/19 09:23:01;;;;;;;14.03;13.10;;;24.50;99.90;;;;;;5057185;28;20485;-77
2023/06/19 09:25:29;;;;;;;14.87;13.57;;;24.50;99.90;;;;;;5058186;28;20841;-77
2023/06/19 09:27:59;;;;;;;16.50;15.20;;;24.60;99.90;;;;;;5056334;28;20490;-77
2023/06/19 09:30:26;;;;;;;14.70;13.50;;;24.60;99.90;;;;;;5057023;28;20538;-77
2023/06/19 09:32:53;;;;;;;17.20;15.70;;;24.70;99.90;;;;;;5056048;28;20482;-77
2023/06/19 09:35:20;;;;;;;15.50;14.30;;;24.70;99.90;;;;;;5055906;28;20478;-77
2023/06/19 09:37:50;;;;;;;15.77;14.57;;;24.70;99.90;;;;;;5056273;28;20501;-78
2023/06/19 09:40:17;;;;;;;17.67;16.17;;;24.70;99.90;;;;;;5056085;28;20451;-77
2023/06/19 09:42:48;;;;;;;18.20;16.60;;;24.70;99.90;;;;;;5055933;28;20467;-77
2023/06/19 09:45:20;;;;;;;15.90;14.70;;;24.70;99.90;;;;;;5054767;28;20467;-78
2023/06/19 09:47:48;;;;;;;15.30;13.90;;;24.70;99.90;;;;;;5056431;28;20456;-78
2023/06/19 09:50:16;;;;;;;15.80;14.60;;;24.80;99.90;;;;;;5055623;28;20455;-77
2023/06/19 09:52:45;;;;;;;18.23;16.43;;;24.80;99.90;;;;;;5056598;28;20477;-78
2023/06/19 09:55:15;;;;;;;18.17;16.77;;;24.80;99.90;;;;;;5056456;28;20478;-78
2023/06/19 09:57:43;;;;;;;19.90;18.27;;;25.00;99.90;;;;;;5049008;28;20501;-79
2023/06/19 10:00:12;;;;;;;17.27;16.07;;;25.00;99.90;;;;;;5059455;28;20490;-79
2023/06/19 10:02:42;;;;;;;15.07;13.73;;;25.00;99.90;;;;;;5063480;28;20498;-78
2023/06/19 10:05:14;;;;;;;13.53;12.60;;;25.10;99.90;;;;;;5053892;28;20467;-78
2023/06/19 10:07:45;;;;;;;15.17;13.93;;;25.10;99.90;;;;;;5063915;28;20550;-78
2023/06/19 10:10:24;;;;;;;16.00;14.77;;;25.20;99.90;;;;;;5059236;28;20467;-77
2023/06/19 10:12:51;;;;;;;19.63;18.00;;;25.30;99.90;;;;;;5058035;28;20470;-78
2023/06/19 10:15:22;;;;;;;17.00;15.70;;;25.30;99.90;;;;;;5056428;28;20475;-78
2023/06/19 10:17:52;;;;;;;17.17;15.80;;;25.30;99.90;;;;;;5055883;28;20471;-78
2023/06/19 10:20:27;;;;;;;16.77;15.57;;;25.40;99.90;;;;;;5055781;28;20513;-78
2023/06/19 10:22:58;;;;;;;18.40;17.00;;;25.40;99.90;;;;;;5056233;28;20478;-77
2023/06/19 10:25:31;;;;;;;17.07;15.77;;;25.50;99.90;;;;;;5056412;28;20470;-78
2023/06/19 10:27:59;;;;;;;18.70;17.30;;;25.60;99.90;;;;;;5058842;28;20464;-77
2023/06/19 10:30:26;;;;;;;17.90;16.63;;;25.60;99.90;;;;;;5059131;28;20537;-77
2023/06/19 10:32:54;;;;;;;17.60;16.03;;;25.70;99.90;;;;;;5060521;28;20499;-77
2023/06/19 10:35:25;;;;;;;16.73;15.40;;;25.70;99.90;;;;;;5058676;28;20495;-78
2023/06/19 10:37:52;;;;;;;17.17;15.80;;;25.70;99.90;;;;;;5062064;28;20464;-79
2023/06/19 10:40:20;;;;;;;17.47;15.87;;;25.70;99.90;;;;;;5063206;28;20526;-80
2023/06/19 10:42:48;;;;;;;15.47;14.43;;;25.70;99.90;;;;;;5064035;28;20467;-79
2023/06/19 10:45:19;;;;;;;17.87;16.40;;;25.60;99.90;;;;;;5065218;28;20471;-78
2023/06/19 10:47:46;;;;;;;15.63;14.50;;;25.70;99.90;;;;;;5065129;28;20488;-78
2023/06/19 10:50:16;;;;;;;17.97;16.57;;;25.70;99.90;;;;;;5066950;28;20468;-79
2023/06/19 10:52:44;;;;;;;17.83;16.50;;;25.70;99.90;;;;;;5063987;28;20479;-78
2023/06/19 10:55:12;;;;;;;17.30;16.00;;;25.70;99.90;;;;;;5060610;28;20477;-78
2023/06/19 10:57:40;;;;;;;17.17;15.97;;;25.70;99.90;;;;;;5067503;28;20467;-78
2023/06/19 11:00:14;;;;;;;16.10;14.93;;;25.70;99.90;;;;;;5066605;28;20498;-78
2023/06/19 11:02:43;;;;;;;18.20;16.80;;;25.70;99.90;;;;;;5066332;28;20468;-78
2023/06/19 11:05:15;;;;;;;15.63;14.53;;;25.70;99.90;;;;;;5063430;28;20468;-78
2023/06/19 11:07:42;;;;;;;16.50;15.23;;;25.70;99.90;;;;;;5067553;28;20519;-78
2023/06/19 11:10:20;;;;;;;17.40;16.10;;;25.70;99.90;;;;;;5066107;28;20463;-77
2023/06/19 11:12:49;;;;;;;15.30;14.13;;;25.70;99.90;;;;;;5062122;28;20475;-78
2023/06/19 11:15:17;;;;;;;16.03;14.70;;;25.80;99.90;;;;;;5063838;28;20483;-79
2023/06/19 11:17:45;;;;;;;15.70;14.60;;;25.80;99.90;;;;;;5066163;28;20470;-80
2023/06/19 11:20:15;;;;;;;16.43;15.27;;;25.80;99.90;;;;;;5064077;28;20579;-77
2023/06/19 11:22:44;;;;;;;15.97;14.67;;;25.90;99.90;;;;;;5066409;28;20498;-78
2023/06/19 11:25:12;;;;;;;17.20;15.80;;;25.90;99.90;;;;;;5062317;28;20471;-78
2023/06/19 11:27:40;;;;;;;15.30;13.93;;;25.90;99.90;;;;;;5065118;28;20467;-78
2023/06/19 11:30:09;;;;;;;15.60;14.40;;;26.00;99.90;;;;;;5066733;28;20468;-79
2023/06/19 11:32:41;;;;;;;15.33;14.13;;;26.00;99.90;;;;;;5063756;28;20491;-78
2023/06/19 11:35:11;;;;;;;14.10;13.10;;;26.10;99.90;;;;;;5062513;28;20551;-79
2023/06/19 11:37:42;;;;;;;15.47;14.37;;;26.10;99.90;;;;;;5060458;28;20459;-77
2023/06/19 11:40:15;;;;;;;14.30;13.23;;;26.20;99.90;;;;;;5060069;28;20841;-79
2023/06/19 11:42:49;;;;;;;15.30;14.20;;;26.30;99.90;;;;;;5058914;28;20477;-78
2023/06/19 11:45:21;;;;;;;14.83;13.73;;;26.40;99.80;;;;;;5058972;28;20515;-79
2023/06/19 11:47:51;;;;;;;13.97;13.07;;;26.50;99.70;;;;;;5034164;28;20495;-79
2023/06/19 11:50:21;;;;;;;14.93;13.73;;;26.60;99.50;;;;;;5047029;28;20502;-78
2023/06/19 11:52:48;;;;;;;13.33;12.33;;;26.70;99.00;;;;;;5044848;28;20547;-78
2023/06/19 11:55:15;;;;;;;15.20;14.10;;;26.80;98.70;;;;;;5059445;28;20463;-77
2023/06/19 11:57:47;;;;;;;14.10;12.93;;;26.90;98.40;;;;;;5049152;28;20512;-78
2023/06/19 12:00:16;;;;;;;15.90;14.70;;;26.90;98.30;;;;;;5045823;28;20470;-79
2023/06/19 12:02:49;;;;;;;14.37;13.23;;;27.00;98.30;;;;;;5044792;28;20811;-78
2023/06/19 12:05:17;;;;;;;15.53;14.40;;;27.00;98.10;;;;;;5035799;28;20471;-79
2023/06/19 12:07:44;;;;;;;12.97;12.13;;;27.20;98.00;;;;;;5036205;28;20455;-77
2023/06/19 12:10:12;;;;;;;14.13;13.13;;;27.20;97.60;;;;;;5051556;28;20462;-76
2023/06/19 12:12:39;;;;;;;12.93;12.13;;;27.30;97.40;;;;;;5057545;28;20545;-77
2023/06/19 12:15:08;;;;;;;14.73;13.40;;;27.20;96.50;;;;;;5057493;28;20557;-78
2023/06/19 12:17:40;;;;;;;11.63;10.73;;;27.30;96.10;;;;;;5055653;28;20471;-78
2023/06/19 12:20:08;;;;;;;13.53;12.63;;;27.30;95.30;;;;;;5055546;28;20462;-77
2023/06/19 12:22:40;;;;;;;12.83;11.83;;;27.30;95.10;;;;;;5054038;28;20474;-79
2023/06/19 12:25:13;;;;;;;12.50;11.60;;;27.40;95.20;;;;;;5054286;28;20478;-79
2023/06/19 12:27:41;;;;;;;12.57;11.67;;;27.40;95.10;;;;;;5039557;28;20561;-78
2023/06/19 12:30:10;;;;;;;12.63;11.70;;;27.40;94.60;;;;;;5050161;28;20493;-80
2023/06/19 12:32:38;;;;;;;12.27;11.10;;;27.50;94.40;;;;;;5040591;28;20470;-77
2023/06/19 12:35:07;;;;;;;13.70;12.70;;;27.50;93.80;;;;;;5051664;28;20839;-79